sensor_id;sensor_type;location;lat;lon;timestamp;pressure;altitude;pressure_sealevel;temperature;humidity
72330;BME280;60660;52.076;5.110;2022-07-29T00:02:10;101884.27;;;12.75;28.50
72330;BME280;60660;52.076;5.110;2022-07-29T00:04:36;101883.25;;;12.92;28.41
72330;BME280;60660;52.076;5.110;2022-07-29T00:07:01;101880.65;;;13.38;28.10
72330;BME280;60660;52.076;5.110;2022-07-29T00:09:27;101872.78;;;12.77;28.69
72330;BME280;60660;52.076;5.110;2022-07-29T00:11:55;101868.53;;;13.22;28.50
72330;BME280;60660;52.076;5.110;2022-07-29T00:14:18;101865.28;;;12.70;29.08
72330;BME280;60660;52.076;5.110;2022-07-29T00:16:43;101866.40;;;13.34;28.85
72330;BME280;60660;52.076;5.110;2022-07-29T00:19:09;101864.67;;;13.36;28.50
72330;BME280;60660;52.076;5.110;2022-07-29T00:21:35;101862.54;;;13.08;28.64
72330;BME280;60660;52.076;5.110;2022-07-29T00:24:00;101862.12;;;13.06;28.36
72330;BME280;60660;52.076;5.110;2022-07-29T00:26:26;101860.48;;;13.02;28.40
72330;BME280;60660;52.076;5.110;2022-07-29T00:28:57;101855.85;;;12.73;28.66
72330;BME280;60660;52.076;5.110;2022-07-29T00:31:17;101849.42;;;12.84;29.12
72330;BME280;60660;52.076;5.110;2022-07-29T00:33:43;101849.49;;;12.80;29.37
72330;BME280;60660;52.076;5.110;2022-07-29T00:36:08;101847.23;;;13.31;28.94
72330;BME280;60660;52.076;5.110;2022-07-29T00:38:34;101845.49;;;13.19;29.38
72330;BME280;60660;52.076;5.110;2022-07-29T00:40:59;101844.36;;;13.15;29.12
72330;BME280;60660;52.076;5.110;2022-07-29T00:43:25;101842.28;;;12.93;29.16
72330;BME280;60660;52.076;5.110;2022-07-29T00:45:51;101842.62;;;12.70;29.17
72330;BME280;60660;52.076;5.110;2022-07-29T00:48:16;101841.55;;;13.47;28.88
72330;BME280;60660;52.076;5.110;2022-07-29T00:50:42;101837.16;;;13.16;28.45
72330;BME280;60660;52.076;5.110;2022-07-29T00:53:07;101838.22;;;12.87;28.97
72330;BME280;60660;52.076;5.110;2022-07-29T00:55:34;101834.93;;;12.99;29.11
72330;BME280;60660;52.076;5.110;2022-07-29T00:57:59;101837.27;;;13.21;28.92
72330;BME280;60660;52.076;5.110;2022-07-29T01:00:26;101834.78;;;13.11;28.85
72330;BME280;60660;52.076;5.110;2022-07-29T01:02:51;101837.76;;;13.15;29.03
72330;BME280;60660;52.076;5.110;2022-07-29T01:05:18;101834.44;;;12.98;29.20
72330;BME280;60660;52.076;5.110;2022-07-29T01:07:41;101832.28;;;12.99;29.14
72330;BME280;60660;52.076;5.110;2022-07-29T01:10:08;101827.58;;;12.75;29.45
72330;BME280;60660;52.076;5.110;2022-07-29T01:12:33;101831.44;;;12.73;29.40
72330;BME280;60660;52.076;5.110;2022-07-29T01:14:58;101831.86;;;12.48;29.32
72330;BME280;60660;52.076;5.110;2022-07-29T01:17:26;101828.22;;;12.66;29.16
72330;BME280;60660;52.076;5.110;2022-07-29T01:19:58;101828.95;;;12.90;29.17
72330;BME280;60660;52.076;5.110;2022-07-29T01:22:26;101829.73;;;12.71;29.02
72330;BME280;60660;52.076;5.110;2022-07-29T01:24:54;101827.13;;;12.65;28.92
72330;BME280;60660;52.076;5.110;2022-07-29T01:27:18;101826.76;;;12.73;29.15
72330;BME280;60660;52.076;5.110;2022-07-29T01:29:35;101829.72;;;12.67;28.91
72330;BME280;60660;52.076;5.110;2022-07-29T01:32:00;101829.55;;;12.43;29.07
72330;BME280;60660;52.076;5.110;2022-07-29T01:36:53;101831.40;;;13.01;28.70
72330;BME280;60660;52.076;5.110;2022-07-29T01:39:18;101830.67;;;12.75;28.77
72330;BME280;60660;52.076;5.110;2022-07-29T01:41:57;101832.18;;;12.53;28.81
72330;BME280;60660;52.076;5.110;2022-07-29T01:44:13;101831.72;;;12.90;28.47
72330;BME280;60660;52.076;5.110;2022-07-29T01:46:34;101832.29;;;12.57;28.88
72330;BME280;60660;52.076;5.110;2022-07-29T01:48:59;101834.78;;;13.02;29.06
72330;BME280;60660;52.076;5.110;2022-07-29T01:51:30;101833.82;;;13.01;28.86
72330;BME280;60660;52.076;5.110;2022-07-29T01:53:51;101833.09;;;12.84;28.48
72330;BME280;60660;52.076;5.110;2022-07-29T01:56:13;101832.58;;;13.23;28.15
72330;BME280;60660;52.076;5.110;2022-07-29T01:58:40;101828.27;;;12.68;28.76
72330;BME280;60660;52.076;5.110;2022-07-29T02:01:05;101829.98;;;13.02;28.23
72330;BME280;60660;52.076;5.110;2022-07-29T02:03:31;101827.30;;;12.73;28.34
72330;BME280;60660;52.076;5.110;2022-07-29T02:05:56;101825.26;;;12.99;28.27
72330;BME280;60660;52.076;5.110;2022-07-29T02:08:21;101821.68;;;12.91;28.40
72330;BME280;60660;52.076;5.110;2022-07-29T02:10:47;101825.84;;;12.38;28.65
72330;BME280;60660;52.076;5.110;2022-07-29T02:13:12;101823.78;;;12.87;28.57
72330;BME280;60660;52.076;5.110;2022-07-29T02:15:38;101823.76;;;12.60;28.43
72330;BME280;60660;52.076;5.110;2022-07-29T02:18:07;101825.24;;;12.59;28.58
72330;BME280;60660;52.076;5.110;2022-07-29T02:20:29;101824.94;;;12.96;28.69
72330;BME280;60660;52.076;5.110;2022-07-29T02:22:56;101824.35;;;12.75;28.63
72330;BME280;60660;52.076;5.110;2022-07-29T02:25:21;101824.91;;;12.60;28.83
72330;BME280;60660;52.076;5.110;2022-07-29T02:27:47;101823.52;;;12.40;28.63
72330;BME280;60660;52.076;5.110;2022-07-29T02:30:12;101823.02;;;12.84;28.37
72330;BME280;60660;52.076;5.110;2022-07-29T02:32:40;101819.73;;;12.57;28.45
72330;BME280;60660;52.076;5.110;2022-07-29T02:35:03;101816.67;;;12.88;28.39
72330;BME280;60660;52.076;5.110;2022-07-29T02:37:29;101817.69;;;12.62;28.70
72330;BME280;60660;52.076;5.110;2022-07-29T02:39:55;101811.20;;;12.64;28.66
72330;BME280;60660;52.076;5.110;2022-07-29T02:42:21;101811.72;;;12.93;28.48
72330;BME280;60660;52.076;5.110;2022-07-29T02:44:45;101807.15;;;13.06;28.42
72330;BME280;60660;52.076;5.110;2022-07-29T02:47:14;101807.37;;;12.45;28.93
72330;BME280;60660;52.076;5.110;2022-07-29T02:49:38;101806.23;;;12.53;29.03
72330;BME280;60660;52.076;5.110;2022-07-29T02:52:04;101809.39;;;12.45;28.70
72330;BME280;60660;52.076;5.110;2022-07-29T02:54:33;101805.12;;;12.76;28.68
72330;BME280;60660;52.076;5.110;2022-07-29T02:56:55;101804.66;;;12.69;28.78
72330;BME280;60660;52.076;5.110;2022-07-29T02:59:23;101804.59;;;12.99;28.62
72330;BME280;60660;52.076;5.110;2022-07-29T03:01:45;101803.06;;;12.67;28.58
72330;BME280;60660;52.076;5.110;2022-07-29T03:04:11;101806.30;;;12.58;28.52
72330;BME280;60660;52.076;5.110;2022-07-29T03:06:36;101801.87;;;12.99;28.51
72330;BME280;60660;52.076;5.110;2022-07-29T03:09:01;101800.07;;;12.70;28.29
72330;BME280;60660;52.076;5.110;2022-07-29T03:11:27;101799.70;;;13.02;28.75
72330;BME280;60660;52.076;5.110;2022-07-29T03:13:54;101794.91;;;12.96;28.27
72330;BME280;60660;52.076;5.110;2022-07-29T03:16:19;101796.11;;;12.81;28.20
72330;BME280;60660;52.076;5.110;2022-07-29T03:18:43;101797.90;;;12.99;28.01
72330;BME280;60660;52.076;5.110;2022-07-29T03:21:09;101795.69;;;12.70;28.45
72330;BME280;60660;52.076;5.110;2022-07-29T03:23:34;101795.40;;;12.84;28.41
72330;BME280;60660;52.076;5.110;2022-07-29T03:26:00;101792.52;;;12.54;28.50
72330;BME280;60660;52.076;5.110;2022-07-29T03:28:25;101792.35;;;12.88;28.19
72330;BME280;60660;52.076;5.110;2022-07-29T03:30:51;101791.70;;;12.73;28.40
72330;BME280;60660;52.076;5.110;2022-07-29T03:33:17;101791.23;;;12.74;28.45
72330;BME280;60660;52.076;5.110;2022-07-29T03:35:42;101792.70;;;12.58;28.28
72330;BME280;60660;52.076;5.110;2022-07-29T03:38:07;101793.89;;;12.50;28.46
72330;BME280;60660;52.076;5.110;2022-07-29T03:40:40;101792.16;;;12.73;28.34
72330;BME280;60660;52.076;5.110;2022-07-29T03:42:59;101790.22;;;12.76;28.68
72330;BME280;60660;52.076;5.110;2022-07-29T03:45:25;101788.40;;;12.79;28.35
72330;BME280;60660;52.076;5.110;2022-07-29T03:47:55;101784.26;;;12.73;28.51
72330;BME280;60660;52.076;5.110;2022-07-29T03:50:15;101780.00;;;12.83;28.55
72330;BME280;60660;52.076;5.110;2022-07-29T03:52:40;101782.03;;;12.37;28.67
72330;BME280;60660;52.076;5.110;2022-07-29T03:55:07;101781.33;;;12.72;28.53
72330;BME280;60660;52.076;5.110;2022-07-29T03:57:32;101780.68;;;12.83;28.67
72330;BME280;60660;52.076;5.110;2022-07-29T03:59:57;101781.20;;;12.71;28.58
72330;BME280;60660;52.076;5.110;2022-07-29T04:02:23;101779.29;;;12.32;28.63
72330;BME280;60660;52.076;5.110;2022-07-29T04:04:48;101781.14;;;12.73;28.50
72330;BME280;60660;52.076;5.110;2022-07-29T04:07:15;101778.15;;;13.04;28.56
72330;BME280;60660;52.076;5.110;2022-07-29T04:09:39;101776.51;;;12.94;28.64
72330;BME280;60660;52.076;5.110;2022-07-29T04:12:05;101779.58;;;12.88;28.62
72330;BME280;60660;52.076;5.110;2022-07-29T04:14:32;101780.84;;;12.61;28.69
72330;BME280;60660;52.076;5.110;2022-07-29T04:16:57;101782.94;;;12.71;28.69
72330;BME280;60660;52.076;5.110;2022-07-29T04:19:21;101781.38;;;12.51;28.36
72330;BME280;60660;52.076;5.110;2022-07-29T04:21:46;101779.38;;;12.74;28.35
72330;BME280;60660;52.076;5.110;2022-07-29T04:24:12;101774.53;;;12.65;28.55
72330;BME280;60660;52.076;5.110;2022-07-29T04:26:37;101772.29;;;12.92;28.47
72330;BME280;60660;52.076;5.110;2022-07-29T04:29:03;101775.56;;;12.81;28.45
72330;BME280;60660;52.076;5.110;2022-07-29T04:31:28;101773.67;;;12.43;28.62
72330;BME280;60660;52.076;5.110;2022-07-29T04:33:54;101776.25;;;12.91;28.37
72330;BME280;60660;52.076;5.110;2022-07-29T04:36:19;101775.37;;;12.59;28.16
72330;BME280;60660;52.076;5.110;2022-07-29T04:38:45;101776.24;;;13.00;28.04
72330;BME280;60660;52.076;5.110;2022-07-29T04:41:10;101780.56;;;13.12;28.06
72330;BME280;60660;52.076;5.110;2022-07-29T04:43:36;101783.08;;;13.03;27.99
72330;BME280;60660;52.076;5.110;2022-07-29T04:46:02;101786.62;;;13.04;27.75
72330;BME280;60660;52.076;5.110;2022-07-29T04:48:27;101792.08;;;12.93;27.93
72330;BME280;60660;52.076;5.110;2022-07-29T04:50:53;101795.00;;;13.40;28.00
72330;BME280;60660;52.076;5.110;2022-07-29T04:53:18;101796.81;;;12.95;28.26
72330;BME280;60660;52.076;5.110;2022-07-29T04:55:44;101794.69;;;12.94;28.38
72330;BME280;60660;52.076;5.110;2022-07-29T04:58:10;101793.44;;;13.58;27.96
72330;BME280;60660;52.076;5.110;2022-07-29T05:00:35;101794.89;;;13.34;27.71
72330;BME280;60660;52.076;5.110;2022-07-29T05:03:01;101792.59;;;13.38;27.86
72330;BME280;60660;52.076;5.110;2022-07-29T05:05:26;101792.60;;;13.35;28.06
72330;BME280;60660;52.076;5.110;2022-07-29T05:07:52;101788.77;;;13.63;28.15
72330;BME280;60660;52.076;5.110;2022-07-29T05:10:18;101787.26;;;13.16;28.17
72330;BME280;60660;52.076;5.110;2022-07-29T05:12:43;101786.57;;;13.27;28.31
72330;BME280;60660;52.076;5.110;2022-07-29T05:15:09;101781.40;;;13.12;28.78
72330;BME280;60660;52.076;5.110;2022-07-29T05:17:34;101780.83;;;13.03;28.49
72330;BME280;60660;52.076;5.110;2022-07-29T05:20:00;101780.08;;;13.04;28.65
72330;BME280;60660;52.076;5.110;2022-07-29T05:22:25;101778.85;;;13.14;28.52
72330;BME280;60660;52.076;5.110;2022-07-29T05:24:51;101781.80;;;13.29;28.48
72330;BME280;60660;52.076;5.110;2022-07-29T05:27:16;101787.66;;;13.06;28.60
72330;BME280;60660;52.076;5.110;2022-07-29T05:29:42;101789.58;;;13.03;28.56
72330;BME280;60660;52.076;5.110;2022-07-29T05:32:08;101791.24;;;13.32;28.11
72330;BME280;60660;52.076;5.110;2022-07-29T05:34:33;101791.53;;;12.90;28.40
72330;BME280;60660;52.076;5.110;2022-07-29T05:36:59;101794.20;;;13.31;28.42
72330;BME280;60660;52.076;5.110;2022-07-29T05:39:24;101796.99;;;13.18;28.24
72330;BME280;60660;52.076;5.110;2022-07-29T05:41:50;101801.21;;;13.09;28.39
72330;BME280;60660;52.076;5.110;2022-07-29T05:44:16;101806.10;;;13.12;28.25
72330;BME280;60660;52.076;5.110;2022-07-29T05:46:41;101807.98;;;13.38;28.03
72330;BME280;60660;52.076;5.110;2022-07-29T05:49:07;101805.86;;;13.59;27.88
72330;BME280;60660;52.076;5.110;2022-07-29T05:51:32;101807.90;;;13.52;28.53
72330;BME280;60660;52.076;5.110;2022-07-29T05:53:57;101806.46;;;13.43;27.95
72330;BME280;60660;52.076;5.110;2022-07-29T05:56:23;101805.64;;;13.53;28.57
72330;BME280;60660;52.076;5.110;2022-07-29T05:58:48;101808.65;;;13.47;27.73
72330;BME280;60660;52.076;5.110;2022-07-29T06:01:14;101809.38;;;13.46;27.82
72330;BME280;60660;52.076;5.110;2022-07-29T06:03:40;101811.18;;;13.94;27.81
72330;BME280;60660;52.076;5.110;2022-07-29T06:06:05;101805.76;;;13.94;27.42
72330;BME280;60660;52.076;5.110;2022-07-29T06:08:31;101801.91;;;13.84;27.66
72330;BME280;60660;52.076;5.110;2022-07-29T06:10:56;101804.88;;;13.96;27.53
72330;BME280;60660;52.076;5.110;2022-07-29T06:13:22;101807.06;;;14.09;27.50
72330;BME280;60660;52.076;5.110;2022-07-29T06:15:47;101805.21;;;14.13;27.32
72330;BME280;60660;52.076;5.110;2022-07-29T06:18:13;101805.83;;;14.52;27.37
72330;BME280;60660;52.076;5.110;2022-07-29T06:20:38;101805.62;;;14.25;27.18
72330;BME280;60660;52.076;5.110;2022-07-29T06:23:05;101806.28;;;13.69;27.74
72330;BME280;60660;52.076;5.110;2022-07-29T06:25:30;101809.26;;;13.78;27.78
72330;BME280;60660;52.076;5.110;2022-07-29T06:27:56;101811.66;;;14.91;27.33
72330;BME280;60660;52.076;5.110;2022-07-29T06:30:20;101811.17;;;14.15;27.11
72330;BME280;60660;52.076;5.110;2022-07-29T06:32:46;101819.56;;;14.47;27.85
72330;BME280;60660;52.076;5.110;2022-07-29T06:35:11;101822.46;;;13.76;27.34
72330;BME280;60660;52.076;5.110;2022-07-29T06:37:37;101830.94;;;13.86;27.63
72330;BME280;60660;52.076;5.110;2022-07-29T06:40:04;101838.42;;;14.51;27.09
72330;BME280;60660;52.076;5.110;2022-07-29T06:42:28;101843.24;;;14.88;26.76
72330;BME280;60660;52.076;5.110;2022-07-29T06:44:54;101843.95;;;15.27;26.18
72330;BME280;60660;52.076;5.110;2022-07-29T06:47:19;101848.03;;;15.23;26.26
72330;BME280;60660;52.076;5.110;2022-07-29T06:49:44;101847.80;;;15.57;25.86
72330;BME280;60660;52.076;5.110;2022-07-29T06:52:09;101847.40;;;15.15;26.07
72330;BME280;60660;52.076;5.110;2022-07-29T06:54:35;101847.04;;;15.57;25.98
72330;BME280;60660;52.076;5.110;2022-07-29T06:57:01;101849.34;;;15.64;25.73
72330;BME280;60660;52.076;5.110;2022-07-29T06:59:26;101846.79;;;15.22;25.64
72330;BME280;60660;52.076;5.110;2022-07-29T07:01:52;101846.34;;;14.50;26.27
72330;BME280;60660;52.076;5.110;2022-07-29T07:04:17;101844.26;;;14.60;26.53
72330;BME280;60660;52.076;5.110;2022-07-29T07:06:43;101846.52;;;15.06;26.12
72330;BME280;60660;52.076;5.110;2022-07-29T07:09:08;101852.16;;;14.82;26.54
72330;BME280;60660;52.076;5.110;2022-07-29T07:11:34;101859.46;;;15.30;25.86
72330;BME280;60660;52.076;5.110;2022-07-29T07:14:00;101861.19;;;14.85;25.99
72330;BME280;60660;52.076;5.110;2022-07-29T07:16:25;101863.30;;;15.02;26.16
72330;BME280;60660;52.076;5.110;2022-07-29T07:18:50;101862.00;;;15.41;25.83
72330;BME280;60660;52.076;5.110;2022-07-29T07:21:16;101858.42;;;15.57;25.88
72330;BME280;60660;52.076;5.110;2022-07-29T07:23:41;101853.49;;;16.22;25.47
72330;BME280;60660;52.076;5.110;2022-07-29T07:26:07;101851.31;;;16.20;24.97
72330;BME280;60660;52.076;5.110;2022-07-29T07:28:33;101847.69;;;16.58;24.70
72330;BME280;60660;52.076;5.110;2022-07-29T07:30:58;101845.93;;;16.09;25.05
72330;BME280;60660;52.076;5.110;2022-07-29T07:33:24;101841.82;;;16.14;24.84
72330;BME280;60660;52.076;5.110;2022-07-29T07:35:50;101836.32;;;17.23;24.20
72330;BME280;60660;52.076;5.110;2022-07-29T07:38:15;101832.91;;;17.18;24.38
72330;BME280;60660;52.076;5.110;2022-07-29T07:40:41;101829.04;;;17.46;23.82
72330;BME280;60660;52.076;5.110;2022-07-29T07:43:06;101827.83;;;17.76;22.73
72330;BME280;60660;52.076;5.110;2022-07-29T07:45:32;101826.95;;;18.75;22.16
72330;BME280;60660;52.076;5.110;2022-07-29T07:47:57;101826.18;;;18.47;22.04
72330;BME280;60660;52.076;5.110;2022-07-29T07:50:23;101829.48;;;18.06;22.03
72330;BME280;60660;52.076;5.110;2022-07-29T07:52:49;101831.99;;;18.24;22.59
72330;BME280;60660;52.076;5.110;2022-07-29T07:55:19;101830.25;;;18.09;21.89
72330;BME280;60660;52.076;5.110;2022-07-29T07:57:39;101830.94;;;19.09;21.33
72330;BME280;60660;52.076;5.110;2022-07-29T08:00:06;101831.25;;;18.83;21.32
72330;BME280;60660;52.076;5.110;2022-07-29T08:02:31;101829.40;;;17.82;21.68
72330;BME280;60660;52.076;5.110;2022-07-29T08:04:56;101828.24;;;18.43;21.95
72330;BME280;60660;52.076;5.110;2022-07-29T08:07:21;101822.40;;;18.20;21.64
72330;BME280;60660;52.076;5.110;2022-07-29T08:09:47;101823.79;;;18.00;22.08
72330;BME280;60660;52.076;5.110;2022-07-29T08:12:12;101823.11;;;17.79;22.19
72330;BME280;60660;52.076;5.110;2022-07-29T08:14:38;101825.67;;;17.30;22.39
72330;BME280;60660;52.076;5.110;2022-07-29T08:17:03;101833.39;;;18.05;22.78
72330;BME280;60660;52.076;5.110;2022-07-29T08:19:29;101835.28;;;17.37;24.03
72330;BME280;60660;52.076;5.110;2022-07-29T08:21:56;101835.10;;;17.77;23.80
72330;BME280;60660;52.076;5.110;2022-07-29T08:24:20;101836.07;;;17.93;23.89
72330;BME280;60660;52.076;5.110;2022-07-29T08:26:45;101837.94;;;17.81;23.69
72330;BME280;60660;52.076;5.110;2022-07-29T08:29:11;101836.29;;;17.86;23.09
72330;BME280;60660;52.076;5.110;2022-07-29T08:31:36;101838.14;;;18.23;22.11
72330;BME280;60660;52.076;5.110;2022-07-29T08:34:02;101842.83;;;18.59;22.32
72330;BME280;60660;52.076;5.110;2022-07-29T08:36:27;101844.38;;;18.70;21.88
72330;BME280;60660;52.076;5.110;2022-07-29T08:38:52;101847.48;;;18.77;21.83
72330;BME280;60660;52.076;5.110;2022-07-29T08:41:18;101852.48;;;18.39;22.27
72330;BME280;60660;52.076;5.110;2022-07-29T08:43:43;101850.99;;;18.12;22.87
72330;BME280;60660;52.076;5.110;2022-07-29T08:46:09;101847.84;;;18.21;22.68
72330;BME280;60660;52.076;5.110;2022-07-29T08:48:34;101848.29;;;18.79;22.35
72330;BME280;60660;52.076;5.110;2022-07-29T08:51:00;101845.90;;;18.97;22.13
72330;BME280;60660;52.076;5.110;2022-07-29T08:53:26;101845.65;;;19.12;21.99
72330;BME280;60660;52.076;5.110;2022-07-29T08:55:52;101845.32;;;19.29;21.61
72330;BME280;60660;52.076;5.110;2022-07-29T08:58:17;101840.23;;;19.12;23.01
72330;BME280;60660;52.076;5.110;2022-07-29T09:00:43;101836.50;;;18.36;24.19
72330;BME280;60660;52.076;5.110;2022-07-29T09:03:09;101836.42;;;18.28;24.07
72330;BME280;60660;52.076;5.110;2022-07-29T09:05:32;101833.75;;;17.55;24.58
72330;BME280;60660;52.076;5.110;2022-07-29T09:08:04;101838.53;;;18.25;23.68
72330;BME280;60660;52.076;5.110;2022-07-29T09:10:23;101834.34;;;18.48;23.71
72330;BME280;60660;52.076;5.110;2022-07-29T09:12:49;101835.76;;;18.92;23.39
72330;BME280;60660;52.076;5.110;2022-07-29T09:15:14;101837.39;;;19.00;24.25
72330;BME280;60660;52.076;5.110;2022-07-29T09:17:41;101834.81;;;19.17;22.42
72330;BME280;60660;52.076;5.110;2022-07-29T09:20:10;101832.65;;;19.01;21.92
72330;BME280;60660;52.076;5.110;2022-07-29T09:22:31;101832.31;;;19.43;22.39
72330;BME280;60660;52.076;5.110;2022-07-29T09:24:57;101829.58;;;19.12;23.08
72330;BME280;60660;52.076;5.110;2022-07-29T09:27:25;101826.52;;;19.30;22.18
72330;BME280;60660;52.076;5.110;2022-07-29T09:29:54;101828.02;;;20.46;20.74
72330;BME280;60660;52.076;5.110;2022-07-29T09:32:13;101822.88;;;22.86;18.70
72330;BME280;60660;52.076;5.110;2022-07-29T09:34:43;101825.70;;;22.72;18.54
72330;BME280;60660;52.076;5.110;2022-07-29T09:37:04;101828.88;;;23.27;18.89
72330;BME280;60660;52.076;5.110;2022-07-29T09:39:31;101828.57;;;24.38;17.78
72330;BME280;60660;52.076;5.110;2022-07-29T09:41:58;101828.63;;;25.68;16.62
72330;BME280;60660;52.076;5.110;2022-07-29T09:44:21;101837.25;;;27.22;15.07
72330;BME280;60660;52.076;5.110;2022-07-29T09:47:04;101836.11;;;27.10;14.80
72330;BME280;60660;52.076;5.110;2022-07-29T09:49:12;101833.08;;;27.67;14.11
72330;BME280;60660;52.076;5.110;2022-07-29T09:51:37;101834.87;;;26.62;15.26
72330;BME280;60660;52.076;5.110;2022-07-29T09:54:21;101833.46;;;25.82;15.37
72330;BME280;60660;52.076;5.110;2022-07-29T09:56:38;101834.45;;;25.45;15.76
72330;BME280;60660;52.076;5.110;2022-07-29T09:59:05;101839.99;;;25.45;15.99
72330;BME280;60660;52.076;5.110;2022-07-29T10:01:28;101842.95;;;26.89;15.50
72330;BME280;60660;52.076;5.110;2022-07-29T10:03:52;101845.39;;;26.44;15.24
72330;BME280;60660;52.076;5.110;2022-07-29T10:06:11;101842.05;;;26.82;15.29
72330;BME280;60660;52.076;5.110;2022-07-29T10:08:36;101835.78;;;28.53;13.84
72330;BME280;60660;52.076;5.110;2022-07-29T10:11:13;101833.88;;;28.53;13.58
72330;BME280;60660;52.076;5.110;2022-07-29T10:13:26;101835.10;;;26.88;14.33
72330;BME280;60660;52.076;5.110;2022-07-29T10:15:52;101832.41;;;25.28;16.14
72330;BME280;60660;52.076;5.110;2022-07-29T10:18:17;101834.52;;;23.59;17.41
72330;BME280;60660;52.076;5.110;2022-07-29T10:20:48;101831.61;;;24.99;16.49
72330;BME280;60660;52.076;5.110;2022-07-29T10:23:09;101830.32;;;23.45;16.99
72330;BME280;60660;52.076;5.110;2022-07-29T10:25:33;101827.19;;;25.14;16.52
72330;BME280;60660;52.076;5.110;2022-07-29T10:27:59;101829.15;;;23.98;16.41
72330;BME280;60660;52.076;5.110;2022-07-29T10:30:25;101829.74;;;22.99;18.03
72330;BME280;60660;52.076;5.110;2022-07-29T10:33:14;101824.62;;;22.96;18.23
72330;BME280;60660;52.076;5.110;2022-07-29T10:35:25;101825.92;;;23.28;18.66
72330;BME280;60660;52.076;5.110;2022-07-29T10:38:04;101828.86;;;23.43;18.01
72330;BME280;60660;52.076;5.110;2022-07-29T10:40:14;101824.53;;;23.95;17.36
72330;BME280;60660;52.076;5.110;2022-07-29T10:42:39;101823.70;;;22.78;17.97
72330;BME280;60660;52.076;5.110;2022-07-29T10:44:57;101822.09;;;22.74;18.32
72330;BME280;60660;52.076;5.110;2022-07-29T10:47:24;101822.13;;;22.85;18.65
72330;BME280;60660;52.076;5.110;2022-07-29T10:49:56;101828.12;;;22.03;19.26
72330;BME280;60660;52.076;5.110;2022-07-29T10:52:14;101825.98;;;22.42;19.44
72330;BME280;60660;52.076;5.110;2022-07-29T10:54:43;101823.28;;;22.68;19.34
72330;BME280;60660;52.076;5.110;2022-07-29T10:57:14;101823.79;;;23.23;19.03
72330;BME280;60660;52.076;5.110;2022-07-29T10:59:30;101827.86;;;22.77;19.35
72330;BME280;60660;52.076;5.110;2022-07-29T11:01:56;101827.44;;;22.89;19.64
72330;BME280;60660;52.076;5.110;2022-07-29T11:05:26;101825.61;;;24.01;18.93
72330;BME280;60660;52.076;5.110;2022-07-29T11:07:19;101827.62;;;24.30;18.50
72330;BME280;60660;52.076;5.110;2022-07-29T11:09:16;101820.15;;;25.34;17.76
72330;BME280;60660;52.076;5.110;2022-07-29T11:11:37;101825.31;;;27.49;15.44
72330;BME280;60660;52.076;5.110;2022-07-29T11:14:03;101817.22;;;28.35;14.71
72330;BME280;60660;52.076;5.110;2022-07-29T11:16:59;101812.06;;;28.20;15.21
72330;BME280;60660;52.076;5.110;2022-07-29T11:19:26;101811.60;;;27.33;15.71
72330;BME280;60660;52.076;5.110;2022-07-29T11:21:35;101815.46;;;27.25;15.49
72330;BME280;60660;52.076;5.110;2022-07-29T11:23:46;101820.46;;;26.52;15.39
72330;BME280;60660;52.076;5.110;2022-07-29T11:26:15;101821.96;;;26.97;15.48
72330;BME280;60660;52.076;5.110;2022-07-29T11:28:39;101820.76;;;27.47;16.35
72330;BME280;60660;52.076;5.110;2022-07-29T11:31:02;101815.76;;;29.08;13.94
72330;BME280;60660;52.076;5.110;2022-07-29T11:33:28;101815.09;;;28.45;14.62
72330;BME280;60660;52.076;5.110;2022-07-29T11:36:07;101811.38;;;27.59;15.18
72330;BME280;60660;52.076;5.110;2022-07-29T11:38:25;101817.31;;;28.32;14.50
72330;BME280;60660;52.076;5.110;2022-07-29T11:41:19;101818.88;;;26.70;16.04
72330;BME280;60660;52.076;5.110;2022-07-29T11:43:08;101809.68;;;28.46;15.11
72330;BME280;60660;52.076;5.110;2022-07-29T11:45:46;101810.59;;;27.80;14.66
72330;BME280;60660;52.076;5.110;2022-07-29T11:48:00;101811.74;;;28.10;14.57
72330;BME280;60660;52.076;5.110;2022-07-29T11:50:30;101822.06;;;26.28;15.64
72330;BME280;60660;52.076;5.110;2022-07-29T11:52:51;101815.35;;;26.68;15.96
72330;BME280;60660;52.076;5.110;2022-07-29T11:55:18;101814.07;;;26.24;16.81
72330;BME280;60660;52.076;5.110;2022-07-29T11:57:46;101816.30;;;27.99;16.03
72330;BME280;60660;52.076;5.110;2022-07-29T12:00:08;101819.84;;;26.50;16.05
72330;BME280;60660;52.076;5.110;2022-07-29T12:02:40;101816.26;;;26.92;15.61
72330;BME280;60660;52.076;5.110;2022-07-29T12:04:58;101816.43;;;25.72;17.17
72330;BME280;60660;52.076;5.110;2022-07-29T12:07:26;101820.82;;;25.02;17.61
72330;BME280;60660;52.076;5.110;2022-07-29T12:09:50;101819.70;;;26.70;17.21
72330;BME280;60660;52.076;5.110;2022-07-29T12:12:15;101821.17;;;26.47;16.19
72330;BME280;60660;52.076;5.110;2022-07-29T12:14:40;101820.18;;;25.39;17.63
72330;BME280;60660;52.076;5.110;2022-07-29T12:17:07;101828.44;;;25.11;18.41
72330;BME280;60660;52.076;5.110;2022-07-29T12:19:41;101826.35;;;25.05;17.78
72330;BME280;60660;52.076;5.110;2022-07-29T12:21:57;101832.37;;;25.93;18.31
72330;BME280;60660;52.076;5.110;2022-07-29T12:24:21;101832.85;;;26.24;16.58
72330;BME280;60660;52.076;5.110;2022-07-29T12:26:50;101836.23;;;26.67;16.10
72330;BME280;60660;52.076;5.110;2022-07-29T12:29:15;101831.57;;;27.76;15.83
72330;BME280;60660;52.076;5.110;2022-07-29T12:31:37;101832.89;;;27.51;15.68
72330;BME280;60660;52.076;5.110;2022-07-29T12:34:03;101836.03;;;27.01;15.41
72330;BME280;60660;52.076;5.110;2022-07-29T12:36:28;101832.05;;;26.61;16.35
72330;BME280;60660;52.076;5.110;2022-07-29T12:38:54;101829.38;;;26.89;15.86
72330;BME280;60660;52.076;5.110;2022-07-29T12:41:19;101822.22;;;25.80;16.82
72330;BME280;60660;52.076;5.110;2022-07-29T12:43:52;101822.98;;;26.43;17.13